Weather at John F Kennedy International Airport

Public forecast

Using degrees Fahrenheit for public forecast. Weather courtesy of forecast.io.

Current aviation weather report (METAR) for John F Kennedy International Airport

Retrieved 2021/03/04 10:51 UTC (38 minutes ago):

KJFK 041051Z 31011KT 10SM FEW070 FEW250 04/M03 A2983 RMK AO2 SLP100 T00441028

Aviation forecast (TAF) for John F Kennedy International Airport

Retrieved 2021/03/04 06:46 UTC (5 hours ago):

TAF KJFK 040538Z 0406/0512 31007KT P6SM FEW070 FM040900 31010KT P6SM SCT035 FM041500 31016G20KT P6SM SCT040 SCT200 FM041800 31019G29KT P6SM FEW250